TAF Text Data
IDs:
Format:
Raw Decoded Include METAR

Data at: 0238 UTC 29 Nov 2020

KPQI 282320Z 2900/2924 VRB02KT 5SM BR VCSH SCT005 OVC015
  TEMPO 2900/2902 3SM BR BKN005
  FM290600 VRB03KT P6SM SCT015 OVC025
  FM291200 VRB03KT P6SM SCT025 BKN035